createdAt,value
2022-12-11T00:02:35.000Z,1.44
2022-12-11T00:07:35.000Z,1.39
2022-12-11T00:12:35.000Z,1.37
2022-12-11T00:17:34.000Z,1.37
2022-12-11T00:22:35.000Z,1.29
2022-12-11T00:27:35.000Z,1.18
2022-12-11T00:32:38.000Z,1.04
2022-12-11T00:42:35.000Z,1.05
2022-12-11T00:47:34.000Z,1.05
2022-12-11T00:52:35.000Z,1.11
2022-12-11T00:57:35.000Z,1.12
2022-12-11T01:02:35.000Z,1.39
2022-12-11T01:07:35.000Z,1.73
2022-12-11T01:12:34.000Z,1.7
2022-12-11T01:22:35.000Z,1.3
2022-12-11T01:27:34.000Z,1.17
2022-12-11T01:32:35.000Z,1.27
2022-12-11T01:37:35.000Z,1.27
2022-12-11T01:42:35.000Z,1.24
2022-12-11T01:47:35.000Z,1.2
2022-12-11T01:52:35.000Z,1.24
2022-12-11T01:57:34.000Z,1.16
2022-12-11T02:02:34.000Z,1.1
2022-12-11T02:07:35.000Z,1.04
2022-12-11T02:17:35.000Z,1.07
2022-12-11T02:22:35.000Z,1.12
2022-12-11T02:27:35.000Z,1.15
2022-12-11T02:32:35.000Z,1.15
2022-12-11T02:37:34.000Z,1.11
2022-12-11T02:42:35.000Z,1.16
2022-12-11T02:47:35.000Z,1.22
2022-12-11T02:52:34.000Z,1.26
2022-12-11T03:02:35.000Z,1.33
2022-12-11T03:07:35.000Z,1.29
2022-12-11T03:12:34.000Z,1.29
2022-12-11T03:17:35.000Z,1.19
2022-12-11T03:22:35.000Z,1.15
2022-12-11T03:27:34.000Z,1.15
2022-12-11T03:32:35.000Z,1.17
2022-12-11T03:37:34.000Z,1.22
2022-12-11T03:42:34.000Z,1.26
2022-12-11T03:47:35.000Z,1.24
2022-12-11T03:52:35.000Z,1.16
2022-12-11T03:57:35.000Z,1.13
2022-12-11T04:02:35.000Z,1.07
2022-12-11T04:07:35.000Z,1.01
2022-12-11T04:12:35.000Z,1.03
2022-12-11T04:17:35.000Z,1.01
2022-12-11T04:22:35.000Z,1
2022-12-11T04:27:35.000Z,1.05
2022-12-11T04:32:34.000Z,1.01
2022-12-11T04:42:34.000Z,0.91
2022-12-11T04:47:35.000Z,0.94
2022-12-11T04:52:35.000Z,0.88
2022-12-11T04:57:35.000Z,0.93
2022-12-11T05:02:35.000Z,0.94
2022-12-11T05:07:34.000Z,0.92
2022-12-11T05:12:35.000Z,0.78
2022-12-11T05:17:35.000Z,0.8
2022-12-11T05:27:34.000Z,0.77
2022-12-11T05:32:34.000Z,0.8
2022-12-11T05:37:34.000Z,0.85
2022-12-11T05:42:39.000Z,0.78
2022-12-11T05:47:35.000Z,0.59
2022-12-11T05:52:34.000Z,0.61
2022-12-11T05:57:35.000Z,0.73
2022-12-11T06:02:35.000Z,0.73
2022-12-11T06:07:34.000Z,0.78
2022-12-11T06:12:35.000Z,0.89
2022-12-11T06:17:34.000Z,0.91
2022-12-11T06:22:35.000Z,0.79
2022-12-11T06:27:34.000Z,0.81
2022-12-11T06:32:35.000Z,0.87
2022-12-11T06:37:35.000Z,0.83
2022-12-11T06:42:34.000Z,0.78
2022-12-11T06:52:35.000Z,0.64
2022-12-11T06:57:34.000Z,0.48
2022-12-11T07:02:35.000Z,0.39
2022-12-11T07:07:34.000Z,0.47
2022-12-11T07:12:35.000Z,0.48
2022-12-11T07:17:34.000Z,0.54
2022-12-11T07:22:35.000Z,0.53
2022-12-11T07:27:34.000Z,0.67
2022-12-11T07:32:34.000Z,0.69
2022-12-11T07:37:34.000Z,0.69
2022-12-11T07:42:34.000Z,0.81
2022-12-11T07:52:34.000Z,0.78
2022-12-11T07:57:35.000Z,0.55
2022-12-11T08:02:34.000Z,0.4
2022-12-11T08:07:34.000Z,0.42
2022-12-11T08:12:35.000Z,0.49
2022-12-11T08:17:41.000Z,0.42
2022-12-11T08:22:35.000Z,0.61
2022-12-11T08:27:34.000Z,0.65
2022-12-11T08:32:35.000Z,0.52
2022-12-11T08:37:34.000Z,0.59
2022-12-11T08:42:35.000Z,0.44
2022-12-11T08:47:34.000Z,0.44
2022-12-11T08:52:34.000Z,0.53
2022-12-11T08:57:35.000Z,0.54
2022-12-11T09:02:35.000Z,0.57
2022-12-11T09:07:34.000Z,0.74
2022-12-11T09:12:35.000Z,0.74
2022-12-11T09:17:35.000Z,0.79
2022-12-11T09:22:35.000Z,0.83
2022-12-11T09:27:34.000Z,0.93
2022-12-11T09:37:34.000Z,0.82
2022-12-11T09:42:34.000Z,0.73
2022-12-11T09:47:34.000Z,0.67
2022-12-11T09:52:35.000Z,0.67
2022-12-11T09:57:34.000Z,0.66
2022-12-11T10:02:35.000Z,0.65
2022-12-11T10:07:35.000Z,0.54
2022-12-11T10:12:34.000Z,0.5
2022-12-11T10:17:35.000Z,0.49
2022-12-11T10:22:34.000Z,0.46
2022-12-11T10:27:35.000Z,0.53
2022-12-11T10:32:34.000Z,0.33
2022-12-11T10:37:35.000Z,0.26
2022-12-11T10:42:34.000Z,0.3
2022-12-11T10:47:34.000Z,0.35
2022-12-11T10:52:35.000Z,0.19
2022-12-11T10:57:34.000Z,0.01
2022-12-11T11:02:35.000Z,-0.12
2022-12-11T11:07:34.000Z,-0.12
2022-12-11T11:12:35.000Z,-0.14
2022-12-11T11:17:40.000Z,-0.09
2022-12-11T11:22:35.000Z,-0.14
2022-12-11T11:27:34.000Z,-0.09
2022-12-11T11:32:35.000Z,-0.1
2022-12-11T11:37:35.000Z,-0.14
2022-12-11T11:42:34.000Z,-0.18
2022-12-11T11:47:35.000Z,-0.06
2022-12-11T11:52:35.000Z,-0.12
2022-12-11T11:57:35.000Z,-0.13
2022-12-11T12:02:35.000Z,-0.25
2022-12-11T12:07:34.000Z,-0.34
2022-12-11T12:12:42.000Z,-0.23
2022-12-11T12:17:35.000Z,-0.2
2022-12-11T12:22:35.000Z,-0.2
2022-12-11T12:28:01.000Z,-0.19
2022-12-11T12:32:35.000Z,-0.15
2022-12-11T12:37:34.000Z,-0.03
2022-12-11T12:42:34.000Z,0.08
2022-12-11T12:47:35.000Z,0.52
2022-12-11T12:52:34.000Z,0.64
2022-12-11T12:57:35.000Z,0.7
2022-12-11T13:02:34.000Z,0.49
2022-12-11T13:07:35.000Z,0.33
2022-12-11T13:12:35.000Z,0.16
2022-12-11T13:17:34.000Z,0.04
2022-12-11T13:22:35.000Z,-0.13
2022-12-11T13:27:34.000Z,-0.13
2022-12-11T13:32:35.000Z,-0.33
2022-12-11T13:37:35.000Z,-0.57
2022-12-11T13:42:34.000Z,-0.49
2022-12-11T13:47:34.000Z,-0.35
2022-12-11T13:52:34.000Z,-0.38
2022-12-11T13:57:35.000Z,-0.17
2022-12-11T14:02:34.000Z,-0.16
2022-12-11T14:07:35.000Z,-0.22
2022-12-11T14:12:34.000Z,-0.17
2022-12-11T14:17:35.000Z,0.01
2022-12-11T14:22:34.000Z,0.25
2022-12-11T14:32:35.000Z,0.34
2022-12-11T14:37:35.000Z,0.49
2022-12-11T14:42:34.000Z,0.52
2022-12-11T14:47:35.000Z,0.72
2022-12-11T14:52:35.000Z,0.85
2022-12-11T14:57:34.000Z,0.82
2022-12-11T15:02:35.000Z,0.74
2022-12-11T15:07:34.000Z,0.63
2022-12-11T15:12:35.000Z,0.47
2022-12-11T15:17:34.000Z,0.46
2022-12-11T15:22:35.000Z,0.23
2022-12-11T15:27:34.000Z,0.46
2022-12-11T15:32:35.000Z,0.51
2022-12-11T15:37:34.000Z,0.51
2022-12-11T15:42:35.000Z,0.61
2022-12-11T15:47:34.000Z,0.64
2022-12-11T15:52:35.000Z,0.78
2022-12-11T15:57:34.000Z,0.77
2022-12-11T16:02:35.000Z,0.9
2022-12-11T16:07:34.000Z,0.98
2022-12-11T16:12:34.000Z,0.9
2022-12-11T16:17:35.000Z,0.66
2022-12-11T16:22:34.000Z,0.68
2022-12-11T16:27:35.000Z,0.64
2022-12-11T16:32:35.000Z,0.59
2022-12-11T16:37:34.000Z,0.56
2022-12-11T16:42:35.000Z,0.46
2022-12-11T16:47:34.000Z,0.26
2022-12-11T16:52:35.000Z,0.26
2022-12-11T16:57:34.000Z,0.06
2022-12-11T17:02:35.000Z,0.06
2022-12-11T17:07:35.000Z,0.09
2022-12-11T17:12:34.000Z,0.02
2022-12-11T17:22:35.000Z,0.14
2022-12-11T17:27:35.000Z,0.16
2022-12-11T17:32:35.000Z,0.37
2022-12-11T17:37:35.000Z,0.39
2022-12-11T17:42:35.000Z,0.26
2022-12-11T17:47:35.000Z,0.09
2022-12-11T17:52:40.000Z,0.15
2022-12-11T17:57:35.000Z,0.26
2022-12-11T18:02:34.000Z,0.29
2022-12-11T18:07:35.000Z,0.29
2022-12-11T18:12:34.000Z,0.25
2022-12-11T18:17:35.000Z,0.31
2022-12-11T18:22:35.000Z,0.39
2022-12-11T18:27:34.000Z,0.43
2022-12-11T18:32:35.000Z,0.38
2022-12-11T18:37:38.000Z,0.37
2022-12-11T18:42:43.000Z,0.3
2022-12-11T18:47:35.000Z,0.26
2022-12-11T18:52:35.000Z,0.25
2022-12-11T18:57:35.000Z,0.27
2022-12-11T19:02:35.000Z,0.31
2022-12-11T19:07:35.000Z,0.47
2022-12-11T19:12:34.000Z,0.57
2022-12-11T19:17:34.000Z,0.66
2022-12-11T19:22:34.000Z,0.66
2022-12-11T19:27:35.000Z,0.61
2022-12-11T19:42:35.000Z,0.44
2022-12-11T19:47:35.000Z,0.5
2022-12-11T19:52:35.000Z,0.52
2022-12-11T19:57:35.000Z,0.61
2022-12-11T20:02:34.000Z,0.66
2022-12-11T20:07:40.000Z,0.61
2022-12-11T20:12:34.000Z,0.54
2022-12-11T20:17:34.000Z,0.6
2022-12-11T20:22:35.000Z,0.61
2022-12-11T20:27:35.000Z,0.76
2022-12-11T20:32:35.000Z,0.79
2022-12-11T20:37:34.000Z,0.73
2022-12-11T20:42:35.000Z,0.62
2022-12-11T20:47:35.000Z,0.75
2022-12-11T20:52:35.000Z,0.75
2022-12-11T20:57:35.000Z,0.84
2022-12-11T21:02:35.000Z,0.92
2022-12-11T21:07:34.000Z,1.01
2022-12-11T21:12:41.000Z,0.99
2022-12-11T21:17:35.000Z,1
2022-12-11T21:22:35.000Z,0.97
2022-12-11T21:27:35.000Z,1.01
2022-12-11T21:32:34.000Z,1.09
2022-12-11T21:37:35.000Z,1.13
2022-12-11T21:42:34.000Z,1.24
2022-12-11T21:47:34.000Z,1.26
2022-12-11T21:52:35.000Z,1.22
2022-12-11T21:57:37.000Z,1.23
2022-12-11T22:02:35.000Z,1.23
2022-12-11T22:07:34.000Z,1.42
2022-12-11T22:12:34.000Z,1.44
2022-12-11T22:22:34.000Z,1.6
2022-12-11T22:27:35.000Z,1.69
2022-12-11T22:32:34.000Z,1.75
2022-12-11T22:37:35.000Z,1.73
2022-12-11T22:42:35.000Z,1.72
2022-12-11T22:47:35.000Z,1.75
2022-12-11T22:52:35.000Z,1.75
2022-12-11T22:57:35.000Z,1.74
2022-12-11T23:02:34.000Z,1.7
2022-12-11T23:07:35.000Z,1.68
2022-12-11T23:12:34.000Z,1.67
2022-12-11T23:17:34.000Z,1.7
2022-12-11T23:22:35.000Z,1.68
2022-12-11T23:27:34.000Z,1.64
2022-12-11T23:32:34.000Z,1.65
2022-12-11T23:37:35.000Z,1.65
2022-12-11T23:42:34.000Z,1.68
2022-12-11T23:47:35.000Z,1.67
2022-12-11T23:52:34.000Z,1.66
2022-12-11T23:57:35.000Z,1.66
